createdAt,value
2018-01-13T00:00:06.977Z,1012.69
2018-01-13T00:00:47.505Z,1012.72
2018-01-13T00:01:28.051Z,1012.74
2018-01-13T00:02:08.627Z,1012.7
2018-01-13T00:02:49.167Z,1012.71
2018-01-13T00:03:29.690Z,1012.75
2018-01-13T00:04:10.171Z,1012.71
2018-01-13T00:04:50.751Z,1012.73
2018-01-13T00:05:31.312Z,1012.69
2018-01-13T00:06:11.829Z,1012.68
2018-01-13T00:06:52.378Z,1012.73
2018-01-13T00:07:32.954Z,1012.71
2018-01-13T00:08:13.467Z,1012.76
2018-01-13T00:08:53.980Z,1012.7
2018-01-13T00:09:34.557Z,1012.71
2018-01-13T00:10:15.115Z,1012.72
2018-01-13T00:10:55.626Z,1012.67
2018-01-13T00:11:36.176Z,1012.67
2018-01-13T00:12:16.735Z,1012.71
2018-01-13T00:12:57.267Z,1012.71
2018-01-13T00:13:37.797Z,1012.68
2018-01-13T00:14:18.406Z,1012.71
2018-01-13T00:14:58.895Z,1012.66
2018-01-13T00:15:39.569Z,1012.68
2018-01-13T00:16:20.005Z,1012.66
2018-01-13T00:17:00.552Z,1012.68
2018-01-13T00:17:41.167Z,1012.65
2018-01-13T00:18:21.670Z,1012.65
2018-01-13T00:19:03.106Z,1012.64
2018-01-13T00:19:43.539Z,1012.67
2018-01-13T00:20:23.970Z,1012.68
2018-01-13T00:21:04.482Z,1012.66
2018-01-13T00:21:45.084Z,1012.67
2018-01-13T00:22:25.613Z,1012.68
2018-01-13T00:23:06.162Z,1012.7
2018-01-13T00:23:46.720Z,1012.68
2018-01-13T00:24:27.277Z,1012.66
2018-01-13T00:25:07.805Z,1012.73
2018-01-13T00:25:48.380Z,1012.63
2018-01-13T00:26:29.182Z,1012.64
2018-01-13T00:27:09.541Z,1012.62
2018-01-13T00:27:50.103Z,1012.62
2018-01-13T00:28:30.638Z,1012.65
2018-01-13T00:29:11.291Z,1012.64
2018-01-13T00:29:51.835Z,1012.63
2018-01-13T00:30:32.343Z,1012.64
2018-01-13T00:31:12.889Z,1012.66
2018-01-13T00:31:53.421Z,1012.63
2018-01-13T00:32:33.979Z,1012.64
2018-01-13T00:33:14.641Z,1012.6
2018-01-13T00:33:55.212Z,1012.66
2018-01-13T00:34:35.737Z,1012.63
2018-01-13T00:35:16.270Z,1012.64
2018-01-13T00:35:56.824Z,1012.65
2018-01-13T00:36:37.304Z,1012.66
2018-01-13T00:37:17.865Z,1012.62
2018-01-13T00:37:58.390Z,1012.6
2018-01-13T00:38:39.045Z,1012.64
2018-01-13T00:39:19.621Z,1012.61
2018-01-13T00:40:00.183Z,1012.6
2018-01-13T00:40:40.721Z,1012.61
2018-01-13T00:41:21.233Z,1012.64
2018-01-13T00:42:01.805Z,1012.65
2018-01-13T00:42:42.325Z,1012.65
2018-01-13T00:43:22.877Z,1012.66
2018-01-13T00:44:03.432Z,1012.66
2018-01-13T00:44:43.926Z,1012.61
2018-01-13T00:45:24.521Z,1012.67
2018-01-13T00:46:05.003Z,1012.67
2018-01-13T00:46:45.577Z,1012.67
2018-01-13T00:47:26.107Z,1012.69
2018-01-13T00:48:06.619Z,1012.64
2018-01-13T00:48:47.119Z,1012.66
2018-01-13T00:49:27.668Z,1012.7
2018-01-13T00:50:08.208Z,1012.68
2018-01-13T00:50:48.705Z,1012.64
2018-01-13T00:53:18.912Z,1012.69
2018-01-13T00:53:59.460Z,1012.69
2018-01-13T00:54:39.981Z,1012.72
2018-01-13T00:55:20.492Z,1012.68
2018-01-13T00:56:01.015Z,1012.71
2018-01-13T00:56:41.527Z,1012.71
2018-01-13T00:57:22.124Z,1012.7
2018-01-13T00:58:02.664Z,1012.71
2018-01-13T00:58:43.209Z,1012.71
2018-01-13T00:59:23.690Z,1012.71
2018-01-13T01:00:04.221Z,1012.73
2018-01-13T01:00:44.759Z,1012.72
2018-01-13T01:01:25.353Z,1012.75
2018-01-13T01:02:05.839Z,1012.75
2018-01-13T01:02:46.392Z,1012.72
2018-01-13T01:03:26.923Z,1012.73
2018-01-13T01:04:07.434Z,1012.73
2018-01-13T01:04:47.942Z,1012.78
2018-01-13T01:05:28.502Z,1012.75
2018-01-13T01:06:08.987Z,1012.73
2018-01-13T01:06:49.528Z,1012.7
2018-01-13T01:07:30.061Z,1012.71
2018-01-13T01:08:10.632Z,1012.74
2018-01-13T01:08:51.121Z,1012.66
2018-01-13T01:09:31.707Z,1012.66
2018-01-13T01:10:12.235Z,1012.65
2018-01-13T01:10:52.740Z,1012.71
2018-01-13T01:11:33.243Z,1012.69
2018-01-13T01:12:13.816Z,1012.72
2018-01-13T01:12:54.391Z,1012.7
2018-01-13T01:13:34.886Z,1012.72
2018-01-13T01:14:15.432Z,1012.67
2018-01-13T01:14:55.972Z,1012.66
2018-01-13T01:15:36.551Z,1012.69
2018-01-13T01:16:17.112Z,1012.69
2018-01-13T01:16:57.622Z,1012.65
2018-01-13T01:17:38.168Z,1012.65
2018-01-13T01:18:18.675Z,1012.69
2018-01-13T01:18:59.328Z,1012.71
2018-01-13T01:19:39.796Z,1012.71
2018-01-13T01:20:20.384Z,1012.72
2018-01-13T01:21:00.877Z,1012.71
2018-01-13T01:21:41.410Z,1012.68
2018-01-13T01:22:21.927Z,1012.7
2018-01-13T01:23:02.478Z,1012.74
2018-01-13T01:23:43.030Z,1012.73
2018-01-13T01:24:23.538Z,1012.73
2018-01-13T01:25:04.088Z,1012.7
2018-01-13T01:25:44.627Z,1012.74
2018-01-13T01:26:25.169Z,1012.73
2018-01-13T01:27:05.731Z,1012.77
2018-01-13T01:27:46.224Z,1012.77
2018-01-13T01:28:26.746Z,1012.79
2018-01-13T01:29:07.251Z,1012.74
2018-01-13T01:29:47.853Z,1012.74
2018-01-13T01:30:28.355Z,1012.78
2018-01-13T01:31:08.901Z,1012.79
2018-01-13T01:31:49.414Z,1012.78
2018-01-13T01:32:29.962Z,1012.81
2018-01-13T01:33:10.615Z,1012.78
2018-01-13T01:33:51.136Z,1012.74
2018-01-13T01:34:31.671Z,1012.79
2018-01-13T01:35:12.184Z,1012.79
2018-01-13T01:35:52.721Z,1012.83
2018-01-13T01:36:33.363Z,1012.79
2018-01-13T01:37:13.845Z,1012.79
2018-01-13T01:37:54.394Z,1012.81
2018-01-13T01:38:34.941Z,1012.81
2018-01-13T01:39:15.495Z,1012.79
2018-01-13T01:39:56.041Z,1012.79
2018-01-13T01:40:36.574Z,1012.83
2018-01-13T01:41:17.100Z,1012.79
2018-01-13T01:41:57.680Z,1012.82
2018-01-13T01:42:38.187Z,1012.8
2018-01-13T01:43:18.741Z,1012.8
2018-01-13T01:43:59.264Z,1012.8
2018-01-13T01:44:39.794Z,1012.82
2018-01-13T01:45:20.418Z,1012.85
2018-01-13T01:46:00.929Z,1012.87
2018-01-13T01:46:41.449Z,1012.85
2018-01-13T01:47:22.026Z,1012.85
2018-01-13T01:48:02.545Z,1012.83
2018-01-13T01:48:43.042Z,1012.85
2018-01-13T01:49:23.623Z,1012.85
2018-01-13T01:50:04.115Z,1012.82
2018-01-13T01:50:44.673Z,1012.8
2018-01-13T01:51:25.292Z,1012.81
2018-01-13T01:52:05.780Z,1012.84
2018-01-13T01:52:46.362Z,1012.83
2018-01-13T01:53:26.933Z,1012.83
2018-01-13T01:54:07.425Z,1012.84
2018-01-13T01:54:47.940Z,1012.84
2018-01-13T01:55:28.448Z,1012.8
2018-01-13T01:56:08.956Z,1012.81
2018-01-13T01:56:49.464Z,1012.8
2018-01-13T01:57:29.985Z,1012.8
2018-01-13T01:58:10.551Z,1012.81
2018-01-13T01:58:51.111Z,1012.81
2018-01-13T01:59:31.697Z,1012.82
2018-01-13T02:00:12.197Z,1012.84
2018-01-13T02:00:52.748Z,1012.84
2018-01-13T02:01:33.358Z,1012.79
2018-01-13T02:02:13.873Z,1012.83
2018-01-13T02:02:54.374Z,1012.82
2018-01-13T02:03:34.955Z,1012.8
2018-01-13T02:04:15.486Z,1012.83
2018-01-13T02:04:55.988Z,1012.78
2018-01-13T02:05:36.559Z,1012.78
2018-01-13T02:06:17.103Z,1012.8
2018-01-13T02:06:57.630Z,1012.79
2018-01-13T02:07:38.225Z,1012.79
2018-01-13T02:08:18.778Z,1012.82
2018-01-13T02:08:59.311Z,1012.8
2018-01-13T02:09:39.812Z,1012.82
2018-01-13T02:10:20.327Z,1012.76
2018-01-13T02:11:00.900Z,1012.78
2018-01-13T02:11:41.394Z,1012.76
2018-01-13T02:12:21.916Z,1012.81
2018-01-13T02:13:02.462Z,1012.79
2018-01-13T02:13:42.996Z,1012.82
2018-01-13T02:14:23.537Z,1012.78
2018-01-13T02:15:04.121Z,1012.79
2018-01-13T02:15:44.653Z,1012.76
2018-01-13T02:16:25.153Z,1012.77
2018-01-13T02:17:05.662Z,1012.78
2018-01-13T02:17:46.198Z,1012.79
2018-01-13T02:18:26.763Z,1012.76
2018-01-13T02:19:07.296Z,1012.78
2018-01-13T02:19:47.818Z,1012.78
2018-01-13T02:20:28.365Z,1012.79
2018-01-13T02:21:08.912Z,1012.77
2018-01-13T02:21:49.452Z,1012.75
2018-01-13T02:22:29.978Z,1012.76
2018-01-13T02:23:10.479Z,1012.78
2018-01-13T02:23:51.036Z,1012.78
2018-01-13T02:24:31.563Z,1012.73
2018-01-13T02:25:12.131Z,1012.73
2018-01-13T02:25:52.646Z,1012.73
2018-01-13T02:26:33.121Z,1012.77
2018-01-13T02:27:13.650Z,1012.72
2018-01-13T02:27:54.177Z,1012.71
2018-01-13T02:28:34.753Z,1012.74
2018-01-13T02:29:15.323Z,1012.71
2018-01-13T02:29:55.838Z,1012.7
2018-01-13T02:30:36.382Z,1012.76
2018-01-13T02:31:16.942Z,1012.74
2018-01-13T02:31:57.436Z,1012.75
2018-01-13T02:32:38.018Z,1012.72
2018-01-13T02:33:18.603Z,1012.73
2018-01-13T02:33:59.101Z,1012.72
2018-01-13T02:34:39.662Z,1012.7
2018-01-13T02:35:20.192Z,1012.72
2018-01-13T02:36:00.775Z,1012.71
2018-01-13T02:36:41.339Z,1012.71
2018-01-13T02:37:21.881Z,1012.69
2018-01-13T02:38:02.427Z,1012.69
2018-01-13T02:38:42.973Z,1012.67
2018-01-13T02:39:23.514Z,1012.69
2018-01-13T02:40:04.037Z,1012.69
2018-01-13T02:40:44.597Z,1012.65
2018-01-13T02:41:25.157Z,1012.67
2018-01-13T02:42:05.693Z,1012.71
2018-01-13T02:42:46.187Z,1012.67
2018-01-13T02:43:26.743Z,1012.7
2018-01-13T02:44:07.263Z,1012.66
2018-01-13T02:44:47.841Z,1012.72
2018-01-13T02:45:28.366Z,1012.68
2018-01-13T02:46:09.487Z,1012.66
2018-01-13T02:46:49.418Z,1012.73
2018-01-13T02:47:29.937Z,1012.71
2018-01-13T02:48:10.450Z,1012.69
2018-01-13T02:48:51.843Z,1012.65
2018-01-13T02:49:32.401Z,1012.68
2018-01-13T02:50:12.907Z,1012.7
2018-01-13T02:50:53.456Z,1012.69
2018-01-13T02:51:33.949Z,1012.7
2018-01-13T02:52:14.484Z,1012.65
2018-01-13T02:52:55.051Z,1012.65
2018-01-13T02:53:35.805Z,1012.69
2018-01-13T02:54:16.359Z,1012.67
2018-01-13T02:54:56.957Z,1012.65
2018-01-13T02:55:37.456Z,1012.67
2018-01-13T02:56:17.976Z,1012.66
2018-01-13T02:56:58.552Z,1012.68
2018-01-13T02:57:39.113Z,1012.67
2018-01-13T02:58:19.673Z,1012.64
2018-01-13T02:59:00.241Z,1012.65
2018-01-13T02:59:40.759Z,1012.71
2018-01-13T03:00:21.306Z,1012.69
2018-01-13T03:01:01.829Z,1012.66
2018-01-13T03:01:42.376Z,1012.67
2018-01-13T03:02:22.894Z,1012.66
2018-01-13T03:03:03.413Z,1012.66
2018-01-13T03:03:44.032Z,1012.65
2018-01-13T03:04:24.530Z,1012.64
2018-01-13T03:05:05.107Z,1012.64
2018-01-13T03:05:45.625Z,1012.64
2018-01-13T03:06:26.202Z,1012.66
2018-01-13T03:07:06.751Z,1012.66
2018-01-13T03:07:47.262Z,1012.65
2018-01-13T03:08:27.764Z,1012.67
2018-01-13T03:09:08.348Z,1012.66
2018-01-13T03:09:48.841Z,1012.62
2018-01-13T03:10:29.382Z,1012.64
2018-01-13T03:11:09.920Z,1012.61
2018-01-13T03:11:50.465Z,1012.57
2018-01-13T03:12:31.056Z,1012.59
2018-01-13T03:13:11.572Z,1012.55
2018-01-13T03:13:52.061Z,1012.52
2018-01-13T03:14:32.652Z,1012.53
2018-01-13T03:15:13.240Z,1012.49
2018-01-13T03:15:53.774Z,1012.57
2018-01-13T03:16:34.271Z,1012.53
2018-01-13T03:17:14.812Z,1012.5
2018-01-13T03:17:55.343Z,1012.51
2018-01-13T03:18:35.873Z,1012.47
2018-01-13T03:19:16.414Z,1012.49
2018-01-13T03:19:56.986Z,1012.51
2018-01-13T03:20:37.549Z,1012.49
2018-01-13T03:21:18.035Z,1012.51
2018-01-13T03:21:58.586Z,1012.44
2018-01-13T03:22:39.124Z,1012.47
2018-01-13T03:23:19.670Z,1012.48
2018-01-13T03:24:00.227Z,1012.42
2018-01-13T03:24:40.829Z,1012.42
2018-01-13T03:25:21.308Z,1012.46
2018-01-13T03:26:01.803Z,1012.42
2018-01-13T03:26:42.339Z,1012.41
2018-01-13T03:27:22.863Z,1012.37
2018-01-13T03:28:03.407Z,1012.42
2018-01-13T03:28:43.944Z,1012.37
2018-01-13T03:29:24.427Z,1012.42
2018-01-13T03:30:04.956Z,1012.38
2018-01-13T03:30:45.467Z,1012.35
2018-01-13T03:31:26.048Z,1012.39
2018-01-13T03:32:06.524Z,1012.37
2018-01-13T03:32:47.044Z,1012.37
2018-01-13T03:33:27.606Z,1012.34
2018-01-13T03:34:08.145Z,1012.32
2018-01-13T03:34:48.658Z,1012.33
2018-01-13T03:35:29.206Z,1012.36
2018-01-13T03:36:09.741Z,1012.35
2018-01-13T03:36:50.256Z,1012.34
2018-01-13T03:37:30.808Z,1012.33
2018-01-13T03:38:11.327Z,1012.34
2018-01-13T03:38:51.876Z,1012.33
2018-01-13T03:39:32.459Z,1012.3
2018-01-13T03:40:12.922Z,1012.35
2018-01-13T03:40:53.458Z,1012.35
2018-01-13T03:41:34.005Z,1012.32
2018-01-13T03:42:14.560Z,1012.3
2018-01-13T03:42:55.093Z,1012.32
2018-01-13T03:43:35.661Z,1012.36
2018-01-13T03:44:16.167Z,1012.37
2018-01-13T03:44:56.720Z,1012.34
2018-01-13T03:45:37.294Z,1012.29
2018-01-13T03:46:17.797Z,1012.31
2018-01-13T03:46:58.326Z,1012.32
2018-01-13T03:47:38.860Z,1012.27
2018-01-13T03:48:19.386Z,1012.28
2018-01-13T03:48:59.924Z,1012.28
2018-01-13T03:49:40.487Z,1012.26
2018-01-13T03:50:20.970Z,1012.27
2018-01-13T03:51:01.521Z,1012.31
2018-01-13T03:51:42.093Z,1012.31
2018-01-13T03:52:22.623Z,1012.3
2018-01-13T03:53:03.188Z,1012.27
2018-01-13T03:53:43.702Z,1012.28
2018-01-13T03:54:24.245Z,1012.28
2018-01-13T03:55:04.763Z,1012.28
2018-01-13T03:55:45.296Z,1012.27
2018-01-13T03:56:25.816Z,1012.24
2018-01-13T03:57:06.357Z,1012.33
2018-01-13T03:57:46.850Z,1012.23
2018-01-13T03:58:27.369Z,1012.24
2018-01-13T03:59:07.895Z,1012.23
2018-01-13T03:59:48.494Z,1012.23
2018-01-13T04:00:29.012Z,1012.19
2018-01-13T04:01:09.558Z,1012.2
2018-01-13T04:01:50.094Z,1012.17
2018-01-13T04:02:30.644Z,1012.16
2018-01-13T04:03:11.158Z,1012.19
2018-01-13T04:03:51.731Z,1012.18
2018-01-13T04:04:32.233Z,1012.18
2018-01-13T04:05:12.819Z,1012.18
2018-01-13T04:05:53.318Z,1012.19
2018-01-13T04:06:33.804Z,1012.16
2018-01-13T04:07:14.366Z,1012.2
2018-01-13T04:07:54.872Z,1012.13
2018-01-13T04:08:35.394Z,1012.17
2018-01-13T04:09:15.903Z,1012.15
2018-01-13T04:09:56.460Z,1012.17
2018-01-13T04:10:36.976Z,1012.1
2018-01-13T04:11:17.504Z,1012.16
2018-01-13T04:11:58.043Z,1012.12
2018-01-13T04:12:38.565Z,1012.11
2018-01-13T04:13:19.130Z,1012.11
2018-01-13T04:13:59.694Z,1012.13
2018-01-13T04:14:40.182Z,1012.11
2018-01-13T04:15:20.749Z,1012.09
2018-01-13T04:16:01.307Z,1012.1
2018-01-13T04:16:41.877Z,1012.06
2018-01-13T04:17:22.362Z,1012.03
2018-01-13T04:18:02.932Z,1012.05
2018-01-13T04:18:43.473Z,1012.06
2018-01-13T04:19:23.957Z,1012.11
2018-01-13T04:20:04.453Z,1012.09
2018-01-13T04:20:45.016Z,1012.07
2018-01-13T04:21:25.546Z,1012.05
2018-01-13T04:22:06.114Z,1012.05
2018-01-13T04:22:46.616Z,1012.05
2018-01-13T04:23:27.153Z,1012.07
2018-01-13T04:24:07.715Z,1012
2018-01-13T04:24:48.245Z,1012.05
2018-01-13T04:25:28.786Z,1011.96
2018-01-13T04:26:09.371Z,1011.97
2018-01-13T04:26:49.877Z,1011.95
2018-01-13T04:27:30.463Z,1011.93
2018-01-13T04:28:11.021Z,1011.96
2018-01-13T04:28:51.576Z,1011.92
2018-01-13T04:29:32.135Z,1011.96
2018-01-13T04:30:12.727Z,1011.93
2018-01-13T04:30:53.244Z,1011.9
2018-01-13T04:31:33.740Z,1011.94
2018-01-13T04:32:14.346Z,1011.92
2018-01-13T04:32:54.848Z,1011.95
2018-01-13T04:33:35.438Z,1011.95
2018-01-13T04:34:15.977Z,1011.91
2018-01-13T04:34:56.534Z,1011.92
2018-01-13T04:35:37.050Z,1011.88
2018-01-13T04:36:17.620Z,1011.91
2018-01-13T04:36:58.163Z,1011.9
2018-01-13T04:37:38.736Z,1011.89
2018-01-13T04:38:19.271Z,1011.93
2018-01-13T04:38:59.826Z,1011.88
2018-01-13T04:39:40.380Z,1011.88
2018-01-13T04:40:20.872Z,1011.96
2018-01-13T04:41:01.439Z,1011.91
2018-01-13T04:41:41.994Z,1011.93
2018-01-13T04:42:22.491Z,1011.97
2018-01-13T04:43:03.044Z,1011.98
2018-01-13T04:43:43.596Z,1011.89
2018-01-13T04:44:24.135Z,1011.92
2018-01-13T04:45:04.704Z,1011.89
2018-01-13T04:45:45.242Z,1011.93
2018-01-13T04:46:25.755Z,1012.03
2018-01-13T04:47:06.319Z,1012.01
2018-01-13T04:47:46.834Z,1011.97
2018-01-13T04:48:27.423Z,1011.98
2018-01-13T04:49:07.931Z,1011.93
2018-01-13T04:49:48.448Z,1011.98
2018-01-13T04:50:28.992Z,1012.02
2018-01-13T04:51:09.489Z,1011.95
2018-01-13T04:51:50.104Z,1012
2018-01-13T04:52:30.675Z,1011.94
2018-01-13T04:53:11.168Z,1011.91
2018-01-13T04:53:51.715Z,1011.92
2018-01-13T04:54:32.291Z,1011.97
2018-01-13T04:55:12.828Z,1011.91
2018-01-13T04:55:53.345Z,1011.91
2018-01-13T04:56:33.836Z,1011.91
2018-01-13T04:57:14.366Z,1011.98
2018-01-13T04:57:54.868Z,1011.96
2018-01-13T04:58:35.419Z,1011.91
2018-01-13T04:59:15.976Z,1011.95
2018-01-13T04:59:56.503Z,1011.91
2018-01-13T05:00:37.000Z,1011.95
2018-01-13T05:01:17.542Z,1011.94
2018-01-13T05:01:58.085Z,1011.91
2018-01-13T05:02:38.606Z,1011.9
2018-01-13T05:03:19.201Z,1011.91
2018-01-13T05:03:59.941Z,1011.91
2018-01-13T05:04:40.433Z,1011.96
2018-01-13T05:05:20.998Z,1011.94
2018-01-13T05:06:01.527Z,1011.89
2018-01-13T05:06:42.076Z,1011.89
2018-01-13T05:07:22.601Z,1011.9
2018-01-13T05:08:03.147Z,1011.91
2018-01-13T05:08:43.626Z,1011.87
2018-01-13T05:09:24.188Z,1011.88
2018-01-13T05:10:04.681Z,1011.86
2018-01-13T05:10:45.223Z,1011.82
2018-01-13T05:11:25.765Z,1011.8
2018-01-13T05:12:06.298Z,1011.77
2018-01-13T05:12:46.855Z,1011.78
2018-01-13T05:13:27.344Z,1011.8
2018-01-13T05:14:07.948Z,1011.82
2018-01-13T05:14:48.488Z,1011.76
2018-01-13T05:15:28.982Z,1011.78
2018-01-13T05:16:09.574Z,1011.86
2018-01-13T05:16:50.094Z,1011.82
2018-01-13T05:17:30.618Z,1011.77
2018-01-13T05:18:11.229Z,1011.77
2018-01-13T05:18:51.707Z,1011.79
2018-01-13T05:19:32.244Z,1011.82
2018-01-13T05:20:12.729Z,1011.72
2018-01-13T05:20:53.310Z,1011.74
2018-01-13T05:21:33.830Z,1011.76
2018-01-13T05:22:14.370Z,1011.75
2018-01-13T05:22:54.906Z,1011.79
2018-01-13T05:23:35.478Z,1011.71
2018-01-13T05:24:15.920Z,1011.74
2018-01-13T05:24:56.479Z,1011.76
2018-01-13T05:25:37.010Z,1011.71
2018-01-13T05:26:17.580Z,1011.76
2018-01-13T05:26:58.098Z,1011.8
2018-01-13T05:27:38.672Z,1011.8
2018-01-13T05:28:19.277Z,1011.81
2018-01-13T05:28:59.790Z,1011.8
2018-01-13T05:29:40.298Z,1011.78
2018-01-13T05:30:20.852Z,1011.81
2018-01-13T05:31:01.385Z,1011.82
2018-01-13T05:31:41.926Z,1011.78
2018-01-13T05:32:22.413Z,1011.8
2018-01-13T05:33:02.979Z,1011.8
2018-01-13T05:33:43.499Z,1011.77
2018-01-13T05:34:24.053Z,1011.79
2018-01-13T05:35:04.565Z,1011.78
2018-01-13T05:35:45.177Z,1011.78
2018-01-13T05:36:25.715Z,1011.79
2018-01-13T05:37:06.274Z,1011.83
2018-01-13T05:37:46.792Z,1011.81
2018-01-13T05:38:27.297Z,1011.85
2018-01-13T05:39:07.890Z,1011.8
2018-01-13T05:39:48.443Z,1011.87
2018-01-13T05:40:28.935Z,1011.82
2018-01-13T05:41:09.504Z,1011.83
2018-01-13T05:41:49.999Z,1011.83
2018-01-13T05:42:30.549Z,1011.87
2018-01-13T05:43:11.072Z,1011.89
2018-01-13T05:43:51.660Z,1011.88
2018-01-13T05:44:32.207Z,1011.83
2018-01-13T05:45:12.687Z,1011.82
2018-01-13T05:45:53.191Z,1011.92
2018-01-13T05:46:33.705Z,1011.84
2018-01-13T05:47:14.222Z,1011.83
2018-01-13T05:47:54.758Z,1011.84
2018-01-13T05:48:35.307Z,1011.81
2018-01-13T05:49:15.881Z,1011.79
2018-01-13T05:49:56.420Z,1011.82
2018-01-13T05:50:36.962Z,1011.82
2018-01-13T05:51:17.448Z,1011.8
2018-01-13T05:51:58.035Z,1011.84
2018-01-13T05:52:38.549Z,1011.76
2018-01-13T05:53:19.075Z,1011.81
2018-01-13T05:53:59.638Z,1011.79
2018-01-13T05:54:40.203Z,1011.83
2018-01-13T05:55:20.710Z,1011.84
2018-01-13T05:56:01.225Z,1011.83
2018-01-13T05:56:41.845Z,1011.9
2018-01-13T05:57:22.384Z,1011.8
2018-01-13T05:58:02.997Z,1011.78
2018-01-13T05:58:43.412Z,1011.86
2018-01-13T05:59:24.007Z,1011.86
2018-01-13T06:00:04.555Z,1011.79
2018-01-13T06:00:45.036Z,1011.8
2018-01-13T06:01:25.651Z,1011.78
2018-01-13T06:02:06.212Z,1011.79
2018-01-13T06:02:46.759Z,1011.8
2018-01-13T06:03:27.303Z,1011.79
2018-01-13T06:04:07.905Z,1011.76
2018-01-13T06:04:48.420Z,1011.8
2018-01-13T06:05:28.889Z,1011.81
2018-01-13T06:06:09.419Z,1011.8
2018-01-13T06:06:49.997Z,1011.79
2018-01-13T06:07:30.526Z,1011.77
2018-01-13T06:08:11.015Z,1011.81
2018-01-13T06:08:51.559Z,1011.85
2018-01-13T06:09:32.060Z,1011.87
2018-01-13T06:10:12.613Z,1011.86
2018-01-13T06:10:53.113Z,1011.83
2018-01-13T06:11:33.713Z,1011.86
2018-01-13T06:12:14.278Z,1011.85
2018-01-13T06:12:54.795Z,1011.86
2018-01-13T06:13:35.365Z,1011.86
2018-01-13T06:14:15.851Z,1011.79
2018-01-13T06:14:56.441Z,1011.84
2018-01-13T06:15:36.963Z,1011.82
2018-01-13T06:16:17.521Z,1011.82
2018-01-13T06:16:58.022Z,1011.84
2018-01-13T06:17:38.620Z,1011.85
2018-01-13T06:18:19.129Z,1011.88
2018-01-13T06:18:59.674Z,1011.87
2018-01-13T06:19:40.229Z,1011.89
2018-01-13T06:20:20.786Z,1011.83
2018-01-13T06:21:01.263Z,1011.86
2018-01-13T06:21:41.838Z,1011.82
2018-01-13T06:22:22.353Z,1011.85
2018-01-13T06:23:02.836Z,1011.84
2018-01-13T06:23:43.405Z,1011.82
2018-01-13T06:24:23.972Z,1011.85
2018-01-13T06:25:04.481Z,1011.82
2018-01-13T06:25:45.017Z,1011.87
2018-01-13T06:26:25.554Z,1011.79
2018-01-13T06:27:06.044Z,1011.86
2018-01-13T06:27:46.636Z,1011.85
2018-01-13T06:28:27.189Z,1011.84
2018-01-13T06:29:07.691Z,1011.81
2018-01-13T06:29:48.255Z,1011.82
2018-01-13T06:30:28.770Z,1011.81
2018-01-13T06:31:09.282Z,1011.8
2018-01-13T06:31:49.785Z,1011.78
2018-01-13T06:32:30.369Z,1011.81
2018-01-13T06:33:10.900Z,1011.82
2018-01-13T06:33:51.451Z,1011.77
2018-01-13T06:34:31.966Z,1011.82
2018-01-13T06:35:12.506Z,1011.76
2018-01-13T06:35:53.056Z,1011.77
2018-01-13T06:36:33.559Z,1011.82
2018-01-13T06:37:14.096Z,1011.78
2018-01-13T06:37:54.595Z,1011.8
2018-01-13T06:38:35.139Z,1011.82
2018-01-13T06:39:15.702Z,1011.79
2018-01-13T06:39:56.270Z,1011.81
2018-01-13T06:40:36.801Z,1011.77
2018-01-13T06:41:17.271Z,1011.79
2018-01-13T06:41:57.795Z,1011.76
2018-01-13T06:42:38.377Z,1011.81
2018-01-13T06:43:18.902Z,1011.8
2018-01-13T06:43:59.522Z,1011.79
2018-01-13T06:44:40.141Z,1011.78
2018-01-13T06:45:20.735Z,1011.74
2018-01-13T06:46:01.226Z,1011.77
2018-01-13T06:46:41.848Z,1011.81
2018-01-13T06:47:22.316Z,1011.78
2018-01-13T06:48:02.843Z,1011.81
2018-01-13T06:48:43.330Z,1011.8
2018-01-13T06:49:23.872Z,1011.75
2018-01-13T06:50:04.414Z,1011.77
2018-01-13T06:50:44.989Z,1011.74
2018-01-13T06:51:25.486Z,1011.8
2018-01-13T06:52:05.998Z,1011.74
2018-01-13T06:52:46.579Z,1011.8
2018-01-13T06:53:27.388Z,1011.84
2018-01-13T06:54:08.560Z,1011.83
2018-01-13T06:54:49.089Z,1011.83
2018-01-13T06:55:31.425Z,1011.85
2018-01-13T06:56:11.432Z,1011.88
2018-01-13T06:56:51.219Z,1011.87
2018-01-13T06:57:31.756Z,1011.84
2018-01-13T06:58:12.327Z,1011.83
2018-01-13T06:58:52.853Z,1011.78
2018-01-13T06:59:33.463Z,1011.81
2018-01-13T07:00:14.833Z,1011.83
2018-01-13T07:00:55.336Z,1011.78
2018-01-13T07:01:35.924Z,1011.8
2018-01-13T07:02:16.469Z,1011.78
2018-01-13T07:02:57.008Z,1011.77
2018-01-13T07:03:37.605Z,1011.74
2018-01-13T07:04:18.100Z,1011.74
2018-01-13T07:04:58.673Z,1011.78
2018-01-13T07:05:39.186Z,1011.75
2018-01-13T07:06:19.699Z,1011.79
2018-01-13T07:07:00.189Z,1011.78
2018-01-13T07:07:40.749Z,1011.82
2018-01-13T07:08:21.282Z,1011.77
2018-01-13T07:09:02.001Z,1011.79
2018-01-13T07:09:42.537Z,1011.78
2018-01-13T07:10:23.490Z,1011.79
2018-01-13T07:11:04.011Z,1011.73
2018-01-13T07:11:44.593Z,1011.73
2018-01-13T07:12:25.153Z,1011.76
2018-01-13T07:13:05.682Z,1011.73
2018-01-13T07:13:46.224Z,1011.78
2018-01-13T07:14:26.716Z,1011.73
2018-01-13T07:15:07.216Z,1011.73
2018-01-13T07:15:47.743Z,1011.71
2018-01-13T07:16:29.113Z,1011.75
2018-01-13T07:17:09.374Z,1011.72
2018-01-13T07:17:49.927Z,1011.73
2018-01-13T07:18:30.443Z,1011.67
2018-01-13T07:19:11.078Z,1011.67
2018-01-13T07:19:51.564Z,1011.71
2018-01-13T07:20:32.045Z,1011.66
2018-01-13T07:21:12.547Z,1011.7
2018-01-13T07:21:53.168Z,1011.69
2018-01-13T07:22:33.681Z,1011.7
2018-01-13T07:23:14.241Z,1011.73
2018-01-13T07:23:54.741Z,1011.67
2018-01-13T07:24:35.276Z,1011.68
2018-01-13T07:25:15.839Z,1011.67
2018-01-13T07:25:56.372Z,1011.66
2018-01-13T07:26:36.925Z,1011.66
2018-01-13T07:27:17.432Z,1011.61
2018-01-13T07:27:57.940Z,1011.6
2018-01-13T07:28:38.470Z,1011.6
2018-01-13T07:29:19.040Z,1011.62
2018-01-13T07:29:59.557Z,1011.57
2018-01-13T07:30:40.069Z,1011.63
2018-01-13T07:31:20.580Z,1011.61
2018-01-13T07:32:01.152Z,1011.58
2018-01-13T07:32:42.562Z,1011.6
2018-01-13T07:33:22.159Z,1011.63
2018-01-13T07:34:02.681Z,1011.61
2018-01-13T07:34:43.267Z,1011.57
2018-01-13T07:35:23.816Z,1011.56
2018-01-13T07:36:04.379Z,1011.55
2018-01-13T07:36:44.952Z,1011.55
2018-01-13T07:37:25.478Z,1011.51
2018-01-13T07:38:06.047Z,1011.57
2018-01-13T07:38:46.592Z,1011.59
2018-01-13T07:39:27.132Z,1011.56
2018-01-13T07:40:07.708Z,1011.59
2018-01-13T07:40:48.163Z,1011.6
2018-01-13T07:41:28.848Z,1011.58
2018-01-13T07:42:09.357Z,1011.63
2018-01-13T07:42:49.884Z,1011.56
2018-01-13T07:43:30.458Z,1011.61
2018-01-13T07:44:11.007Z,1011.63
2018-01-13T07:44:51.586Z,1011.59
2018-01-13T07:45:32.135Z,1011.58
2018-01-13T07:46:12.685Z,1011.54
2018-01-13T07:46:53.214Z,1011.59
2018-01-13T07:47:33.787Z,1011.56
2018-01-13T07:48:14.313Z,1011.52
2018-01-13T07:48:55.253Z,1011.57
2018-01-13T07:49:35.836Z,1011.55
2018-01-13T07:50:16.345Z,1011.5
2018-01-13T07:50:56.885Z,1011.47
2018-01-13T07:51:37.413Z,1011.57
2018-01-13T07:52:17.900Z,1011.5
2018-01-13T07:52:58.528Z,1011.54
2018-01-13T07:53:39.341Z,1011.51
2018-01-13T07:54:19.878Z,1011.49
2018-01-13T07:55:00.380Z,1011.48
2018-01-13T07:55:40.886Z,1011.49
2018-01-13T07:56:21.476Z,1011.54
2018-01-13T07:57:02.045Z,1011.51
2018-01-13T07:57:42.580Z,1011.47
2018-01-13T07:58:23.084Z,1011.44
2018-01-13T07:59:03.666Z,1011.47
2018-01-13T07:59:44.204Z,1011.46
2018-01-13T08:00:24.732Z,1011.51
2018-01-13T08:01:05.289Z,1011.46
2018-01-13T08:01:45.860Z,1011.44
2018-01-13T08:02:26.416Z,1011.44
2018-01-13T08:03:06.993Z,1011.45
2018-01-13T08:03:47.566Z,1011.49
2018-01-13T08:04:31.002Z,1011.47
2018-01-13T08:05:11.591Z,1011.44
2018-01-13T08:05:52.077Z,1011.5
2018-01-13T08:06:33.306Z,1011.46
2018-01-13T08:07:13.902Z,1011.51
2018-01-13T08:07:54.425Z,1011.47
2018-01-13T08:08:34.974Z,1011.46
2018-01-13T08:09:15.491Z,1011.52
2018-01-13T08:09:56.042Z,1011.5
2018-01-13T08:10:36.595Z,1011.47
2018-01-13T08:11:17.173Z,1011.5
2018-01-13T08:11:57.715Z,1011.48
2018-01-13T08:12:38.241Z,1011.53
2018-01-13T08:13:18.794Z,1011.51
2018-01-13T08:13:59.316Z,1011.43